Hordafor III — LLVC — position and weather

sailwx.info

Track history (hours):
 
Tides and Currents Weather Stations Pressure Air Temp Water Temp Dewpoint Dewpoint Depression Visibility Wind Speed Wind Dir Waves Ship Positions

Hordafor III

Last reported at 2016-Jun-26 12:33 UTC. Time now 2016-Jun-27 20:33 UTC.
Position N 59°50' E 005°33'.

Length 50 m; draft 6 m.

Type: Cargo ship. MMSI: 258044000.

Date/timePositionNaut miles runAvg speedWind from/ knotsBaromVisibWave heightAir tempDewpointWater temp
2016-Jun-26 12:33N 59°50' E 005°33'1010.4
2016-Jun-26 11:33N 59°41' E 005°24'28 9.2
2016-Jun-26 08:33N 59°13' E 005°28'1110.6
2016-Jun-26 07:32N 59°12' E 005°48'5 5.1
2016-Jun-26 06:31N 59°12' E 005°38'29 9.5
2016-Jun-26 03:31N 59°39' E 005°20'127 6.3
2016-Jun-25 07:21N 61°46' E 005°02'910.8
2016-Jun-25 06:32N 61°52' E 005°16'90 7.5
2016-Jun-24 18:33N 63°02' E 007°15'6 5.5
2016-Jun-24 17:33N 63°03' E 007°27'0 0.0
2016-Jun-24 16:33N 63°03' E 007°27'0 0.0
2016-Jun-24 15:33N 63°03' E 007°27'0 0.0
2016-Jun-24 14:33N 63°03' E 007°27'0 0.0
2016-Jun-24 13:33N 63°03' E 007°27'2 1.5
2016-Jun-24 12:33N 63°03' E 007°23'206 5.3
2016-Jun-22 21:28N 59°46' E 005°21'1010.3
2016-Jun-22 20:32N 59°36' E 005°17'2211.1
2016-Jun-22 18:32N 59°14' E 005°21'8 8.2
2016-Jun-22 17:33N 59°10' E 005°34'4 3.6
2016-Jun-22 16:32N 59°11' E 005°41'6 3.0
2016-Jun-22 14:31N 59°12' E 005°52'1010.8
2016-Jun-22 13:33N 59°02' E 005°52'4 3.7
2016-Jun-22 12:33N 58°59' E 005°56'0 0.2
2016-Jun-22 11:34N 58°58' E 005°56'0 0.0
2016-Jun-22 10:33N 58°58' E 005°56'0 0.0
2016-Jun-22 09:33N 58°58' E 005°56'0 0.0
2016-Jun-22 08:34N 58°58' E 005°56'0 0.0
2016-Jun-22 07:34N 58°58' E 005°56'1 0.5
2016-Jun-22 06:34N 58°59' E 005°55'10 9.6
2016-Jun-22 05:33N 59°05' E 005°41'1010.2
2016-Jun-22 04:33N 59°09' E 005°23'28 9.2
2016-Jun-22 01:29N 59°37' E 005°17'8 8.7
2016-Jun-22 00:33N 59°44' E 005°23'2 0.1
2016-Jun-20 19:32N 59°46' E 005°21'1010.0
2016-Jun-20 18:34N 59°36' E 005°17'2210.4
2016-Jun-20 16:26N 59°14' E 005°21'9 9.6
2016-Jun-20 15:33N 59°07' E 005°31'1111.0
2016-Jun-20 14:33N 59°02' E 005°49'5 5.0
2016-Jun-20 13:33N 58°59' E 005°56'8 8.2
2016-Jun-20 12:33N 59°07' E 005°52'10 3.2
2016-Jun-20 09:33N 59°10' E 005°34'7 7.4
2016-Jun-20 08:33N 59°13' E 005°21'24 6.0
2016-Jun-20 04:33N 59°37' E 005°17'9 8.8
2016-Jun-20 03:33N 59°45' E 005°22'  
2016-Jun-17 13:28N 59°46' E 005°21'1010.6
2016-Jun-17 12:33N 59°36' E 005°17'2210.4
2016-Jun-17 10:28N 59°15' E 005°21'7 8.0
2016-Jun-17 09:33N 59°10' E 005°31'9 7.0
2016-Jun-17 08:17N 59°12' E 005°48'5 7.4
2016-Jun-17 07:34N 59°07' E 005°52'8 8.3
2016-Jun-17 06:33N 58°59' E 005°56'0 0.3
2016-Jun-17 05:33N 58°59' E 005°56'7 7.1
2016-Jun-17 04:33N 59°04' E 005°45'9 9.2
2016-Jun-17 03:33N 59°07' E 005°29'8 7.9
2016-Jun-17 02:33N 59°14' E 005°21'18 8.5
2016-Jun-17 00:27N 59°32' E 005°13'8 8.5
2016-Jun-16 23:32N 59°39' E 005°19'9 8.9
2016-Jun-16 22:33N 59°45' E 005°30'  
Track history (hours):
 
Tides and Currents Weather Stations Pressure Air Temp Water Temp Dewpoint Dewpoint Depression Visibility Wind Speed Wind Dir Waves Ship Positions

Hordafor III

Last reported at 2016-Jun-26 12:33 UTC. Time now 2016-Jun-27 20:33 UTC.
Position N 59°50' E 005°33'.

Length 50 m; draft 6 m.

Type: Cargo ship. MMSI: 258044000.

Date/timePositionNaut miles runAvg speedWind from/ knotsBaromVisibWave heightAir tempDewpointWater temp
2016-Jun-26 12:33N 59°50' E 005°33'1010.4
2016-Jun-26 11:33N 59°41' E 005°24'28 9.2
2016-Jun-26 08:33N 59°13' E 005°28'1110.6
2016-Jun-26 07:32N 59°12' E 005°48'5 5.1
2016-Jun-26 06:31N 59°12' E 005°38'29 9.5
2016-Jun-26 03:31N 59°39' E 005°20'127 6.3
2016-Jun-25 07:21N 61°46' E 005°02'910.8
2016-Jun-25 06:32N 61°52' E 005°16'90 7.5
2016-Jun-24 18:33N 63°02' E 007°15'6 5.5
2016-Jun-24 17:33N 63°03' E 007°27'0 0.0
2016-Jun-24 16:33N 63°03' E 007°27'0 0.0
2016-Jun-24 15:33N 63°03' E 007°27'0 0.0
2016-Jun-24 14:33N 63°03' E 007°27'0 0.0
2016-Jun-24 13:33N 63°03' E 007°27'2 1.5
2016-Jun-24 12:33N 63°03' E 007°23'206 5.3
2016-Jun-22 21:28N 59°46' E 005°21'1010.3
2016-Jun-22 20:32N 59°36' E 005°17'2211.1
2016-Jun-22 18:32N 59°14' E 005°21'8 8.2
2016-Jun-22 17:33N 59°10' E 005°34'4 3.6
2016-Jun-22 16:32N 59°11' E 005°41'6 3.0
2016-Jun-22 14:31N 59°12' E 005°52'1010.8
2016-Jun-22 13:33N 59°02' E 005°52'4 3.7
2016-Jun-22 12:33N 58°59' E 005°56'0 0.2
2016-Jun-22 11:34N 58°58' E 005°56'0 0.0
2016-Jun-22 10:33N 58°58' E 005°56'0 0.0
2016-Jun-22 09:33N 58°58' E 005°56'0 0.0
2016-Jun-22 08:34N 58°58' E 005°56'0 0.0
2016-Jun-22 07:34N 58°58' E 005°56'1 0.5
2016-Jun-22 06:34N 58°59' E 005°55'10 9.6
2016-Jun-22 05:33N 59°05' E 005°41'1010.2
2016-Jun-22 04:33N 59°09' E 005°23'28 9.2
2016-Jun-22 01:29N 59°37' E 005°17'8 8.7
2016-Jun-22 00:33N 59°44' E 005°23'2 0.1
2016-Jun-20 19:32N 59°46' E 005°21'1010.0
2016-Jun-20 18:34N 59°36' E 005°17'2210.4
2016-Jun-20 16:26N 59°14' E 005°21'9 9.6
2016-Jun-20 15:33N 59°07' E 005°31'1111.0
2016-Jun-20 14:33N 59°02' E 005°49'5 5.0
2016-Jun-20 13:33N 58°59' E 005°56'8 8.2
2016-Jun-20 12:33N 59°07' E 005°52'10 3.2
2016-Jun-20 09:33N 59°10' E 005°34'7 7.4
2016-Jun-20 08:33N 59°13' E 005°21'24 6.0
2016-Jun-20 04:33N 59°37' E 005°17'9 8.8
2016-Jun-20 03:33N 59°45' E 005°22'  
2016-Jun-17 13:28N 59°46' E 005°21'1010.6
2016-Jun-17 12:33N 59°36' E 005°17'2210.4
2016-Jun-17 10:28N 59°15' E 005°21'7 8.0
2016-Jun-17 09:33N 59°10' E 005°31'9 7.0
2016-Jun-17 08:17N 59°12' E 005°48'5 7.4
2016-Jun-17 07:34N 59°07' E 005°52'8 8.3
2016-Jun-17 06:33N 58°59' E 005°56'0 0.3
2016-Jun-17 05:33N 58°59' E 005°56'7 7.1
2016-Jun-17 04:33N 59°04' E 005°45'9 9.2
2016-Jun-17 03:33N 59°07' E 005°29'8 7.9
2016-Jun-17 02:33N 59°14' E 005°21'18 8.5
2016-Jun-17 00:27N 59°32' E 005°13'8 8.5
2016-Jun-16 23:32N 59°39' E 005°19'9 8.9
2016-Jun-16 22:33N 59°45' E 005°30'  

Dump ship's entire track history